Time,TemperatureF,DewpointF,PressureIn,WindDirection,WindDirectionDegrees,WindSpeedMPH,WindSpeedGustMPH,Humidity,HourlyPrecipIn,Conditions,Clouds,dailyrainin,SoftwareType,DateUTC
2013-07-27 00:01:00,82.2,81.6,31.64,West,270,0.0,0.0,98,0.00,CLR,,0.00,WeatherDisplay:10.37,2013-07-27 04:01:00,
2013-07-27 00:06:00,82.2,81.6,31.64,West,270,0.0,0.0,98,0.00,CLR,,0.00,WeatherDisplay:10.37,2013-07-27 04:06:00,
2013-07-27 00:11:00,82.0,81.4,31.64,West,270,0.0,0.0,98,0.00,CLR,,0.00,WeatherDisplay:10.37,2013-07-27 04:11:00,
2013-07-27 00:17:00,82.0,81.4,31.64,West,270,0.0,0.0,98,0.00,CLR,,0.00,WeatherDisplay:10.37,2013-07-27 04:17:00,
2013-07-27 00:22:00,81.9,81.3,31.64,West,270,0.0,0.0,98,0.00,CLR,,0.00,WeatherDisplay:10.37,2013-07-27 04:22:00,
2013-07-27 00:27:00,81.9,81.3,31.64,West,270,0.0,0.0,98,0.00,CLR,,0.00,WeatherDisplay:10.37,2013-07-27 04:27:00,
2013-07-27 00:32:00,81.9,81.3,31.64,West,270,0.0,0.0,98,0.00,CLR,,0.00,WeatherDisplay:10.37,2013-07-27 04:32:00,
2013-07-27 00:37:00,81.5,80.9,32.07,West,270,0.0,0.0,98,0.00,CLR,,0.00,WeatherDisplay:10.37,2013-07-27 04:37:00,
2013-07-27 00:42:00,81.5,80.9,32.07,West,270,0.0,0.0,98,0.00,CLR,,0.00,WeatherDisplay:10.37,2013-07-27 04:42:00,
2013-07-27 00:47:00,81.3,80.7,30.25,West,270,0.0,0.0,98,0.00,CLR,,0.00,WeatherDisplay:10.37,2013-07-27 04:47:00,
2013-07-27 00:52:00,81.3,80.7,30.25,West,270,0.0,0.0,98,0.00,CLR,,0.00,WeatherDisplay:10.37,2013-07-27 04:52:00,
2013-07-27 00:57:00,81.3,80.7,30.25,West,270,0.0,0.0,98,0.00,CLR,,0.00,WeatherDisplay:10.37,2013-07-27 04:57:00,
2013-07-27 01:02:00,81.3,80.7,29.21,West,270,0.0,0.0,98,0.00,CLR,,0.00,WeatherDisplay:10.37,2013-07-27 05:02:00,
2013-07-27 01:07:00,81.3,80.7,29.21,West,270,0.0,0.0,98,0.00,CLR,,0.00,WeatherDisplay:10.37,2013-07-27 05:07:00,
2013-07-27 01:12:00,81.1,80.5,28.60,West,270,0.0,0.0,98,0.00,CLR,,0.00,WeatherDisplay:10.37,2013-07-27 05:12:00,
2013-07-27 01:17:00,81.1,80.5,28.60,West,270,0.0,0.0,98,0.00,CLR,,0.00,WeatherDisplay:10.37,2013-07-27 05:17:00,
2013-07-27 01:22:00,81.1,80.5,28.45,West,270,0.0,0.0,98,0.00,CLR,,0.00,WeatherDisplay:10.37,2013-07-27 05:22:00,
2013-07-27 01:27:00,81.1,80.5,28.45,West,270,0.0,0.0,98,0.00,CLR,,0.00,WeatherDisplay:10.37,2013-07-27 05:27:00,
2013-07-27 01:32:00,81.1,80.5,28.45,West,270,0.0,0.0,98,0.00,CLR,,0.00,WeatherDisplay:10.37,2013-07-27 05:32:00,
2013-07-27 01:37:00,81.0,80.4,30.24,West,270,0.0,0.0,98,0.00,CLR,,0.00,WeatherDisplay:10.37,2013-07-27 05:37:00,
2013-07-27 01:42:00,81.0,80.4,30.24,West,270,0.0,0.0,98,0.00,CLR,,0.00,WeatherDisplay:10.37,2013-07-27 05:42:00,
2013-07-27 01:47:00,81.1,80.5,31.69,West,270,0.0,0.0,98,0.00,CLR,,0.00,WeatherDisplay:10.37,2013-07-27 05:47:00,
2013-07-27 01:52:00,81.1,80.5,31.69,West,270,0.0,0.0,98,0.00,CLR,,0.00,WeatherDisplay:10.37,2013-07-27 05:52:00,
2013-07-27 01:57:00,81.0,80.4,31.69,West,270,0.0,0.0,98,0.00,CLR,,0.00,WeatherDisplay:10.37,2013-07-27 05:57:00,
2013-07-27 02:02:00,81.0,80.4,32.47,West,270,0.0,0.0,98,0.00,CLR,,0.00,WeatherDisplay:10.37,2013-07-27 06:02:00,
2013-07-27 02:07:00,81.0,80.4,32.47,West,270,0.0,0.0,98,0.00,CLR,,0.00,WeatherDisplay:10.37,2013-07-27 06:07:00,
2013-07-27 02:12:00,81.0,80.4,31.69,West,270,0.0,0.0,98,0.00,CLR,,0.00,WeatherDisplay:10.37,2013-07-27 06:12:00,
2013-07-27 02:17:00,80.8,80.2,31.69,West,270,0.0,0.0,98,0.00,CLR,,0.00,WeatherDisplay:10.37,2013-07-27 06:17:00,
2013-07-27 02:22:00,80.8,80.2,31.69,West,270,0.0,0.0,98,0.00,CLR,,0.00,WeatherDisplay:10.37,2013-07-27 06:22:00,
2013-07-27 02:27:00,80.8,80.2,31.69,West,270,0.0,0.0,98,0.00,CLR,,0.00,WeatherDisplay:10.37,2013-07-27 06:27:00,
2013-07-27 02:32:00,80.8,80.2,31.69,West,270,0.0,0.0,98,0.00,CLR,,0.00,WeatherDisplay:10.37,2013-07-27 06:32:00,
2013-07-27 02:37:00,80.6,80.0,31.69,West,270,0.0,0.0,98,0.00,CLR,,0.00,WeatherDisplay:10.37,2013-07-27 06:37:00,
2013-07-27 02:42:00,80.6,80.0,31.69,West,270,0.0,0.0,98,0.00,CLR,,0.00,WeatherDisplay:10.37,2013-07-27 06:42:00,
2013-07-27 02:47:00,80.6,80.0,31.69,West,270,0.0,0.0,98,0.00,CLR,,0.00,WeatherDisplay:10.37,2013-07-27 06:47:00,
2013-07-27 02:52:00,80.6,80.0,31.69,West,270,0.0,0.0,98,0.00,CLR,,0.00,WeatherDisplay:10.37,2013-07-27 06:52:00,
2013-07-27 02:57:00,80.6,80.0,31.69,West,270,0.0,0.0,98,0.00,CLR,,0.00,WeatherDisplay:10.37,2013-07-27 06:57:00,
2013-07-27 03:02:00,80.6,80.0,31.69,West,270,0.0,0.0,98,0.00,CLR,,0.00,WeatherDisplay:10.37,2013-07-27 07:02:00,
2013-07-27 03:07:00,80.4,79.8,31.69,West,270,0.0,0.0,98,0.00,CLR,,0.00,WeatherDisplay:10.37,2013-07-27 07:07:00,
2013-07-27 03:12:00,80.4,79.8,31.11,West,270,0.0,0.0,98,0.00,CLR,,0.00,WeatherDisplay:10.37,2013-07-27 07:12:00,
2013-07-27 03:17:00,80.4,79.8,31.11,West,270,0.0,0.0,98,0.00,CLR,,0.00,WeatherDisplay:10.37,2013-07-27 07:17:00,
2013-07-27 03:22:00,80.4,79.8,29.77,West,270,0.0,0.0,98,0.00,CLR,,0.00,WeatherDisplay:10.37,2013-07-27 07:22:00,
2013-07-27 03:27:00,80.4,79.8,29.77,West,270,0.0,0.0,98,0.00,CLR,,0.00,WeatherDisplay:10.37,2013-07-27 07:27:00,
2013-07-27 03:32:00,80.4,79.8,29.77,West,270,0.0,0.0,98,0.00,CLR,,0.00,WeatherDisplay:10.37,2013-07-27 07:32:00,
2013-07-27 03:37:00,80.6,80.0,29.04,West,270,0.0,0.0,98,0.00,CLR,,0.00,WeatherDisplay:10.37,2013-07-27 07:37:00,
2013-07-27 03:42:00,80.6,80.0,29.04,West,270,0.0,0.0,98,0.00,CLR,,0.00,WeatherDisplay:10.37,2013-07-27 07:42:00,
2013-07-27 03:47:00,80.6,80.0,28.50,West,270,0.0,0.0,98,0.00,CLR,,0.00,WeatherDisplay:10.37,2013-07-27 07:47:00,
2013-07-27 03:52:00,80.4,79.8,28.50,West,270,0.0,0.0,98,0.00,CLR,,0.00,WeatherDisplay:10.37,2013-07-27 07:52:00,
2013-07-27 03:57:00,80.4,79.8,28.32,West,270,0.0,0.0,98,0.00,CLR,,0.00,WeatherDisplay:10.37,2013-07-27 07:57:00,
2013-07-27 04:02:00,80.4,79.8,28.32,West,270,0.0,0.0,98,0.00,CLR,,0.00,WeatherDisplay:10.37,2013-07-27 08:02:00,
2013-07-27 04:07:00,80.4,79.8,28.32,West,270,0.0,0.0,98,0.00,CLR,,0.00,WeatherDisplay:10.37,2013-07-27 08:07:00,
2013-07-27 04:12:00,80.4,79.8,30.40,West,270,0.0,0.0,98,0.00,CLR,,0.00,WeatherDisplay:10.37,2013-07-27 08:12:00,
2013-07-27 04:17:00,80.1,79.5,30.40,West,270,0.0,0.0,98,0.00,CLR,,0.00,WeatherDisplay:10.37,2013-07-27 08:17:00,
2013-07-27 04:22:00,80.1,79.5,31.73,West,270,0.0,0.0,98,0.00,CLR,,0.00,WeatherDisplay:10.37,2013-07-27 08:22:00,
2013-07-27 04:27:00,80.1,79.5,31.73,West,270,0.0,0.0,98,0.00,CLR,,0.00,WeatherDisplay:10.37,2013-07-27 08:27:00,
2013-07-27 04:32:00,80.1,79.5,31.73,West,270,0.0,0.0,98,0.00,CLR,,0.00,WeatherDisplay:10.37,2013-07-27 08:32:00,
2013-07-27 04:37:00,80.1,79.5,31.73,West,270,0.0,0.0,98,0.00,CLR,,0.00,WeatherDisplay:10.37,2013-07-27 08:37:00,
2013-07-27 04:42:00,79.9,79.3,31.73,West,270,0.0,0.0,98,0.00,CLR,,0.00,WeatherDisplay:10.37,2013-07-27 08:42:00,
2013-07-27 04:47:00,79.9,79.3,31.73,West,270,0.0,0.0,98,0.00,CLR,,0.00,WeatherDisplay:10.37,2013-07-27 08:47:00,
2013-07-27 04:52:00,79.9,79.3,31.73,West,270,0.0,0.0,98,0.00,CLR,,0.00,WeatherDisplay:10.37,2013-07-27 08:52:00,
2013-07-27 04:57:00,79.7,79.1,31.73,West,270,0.0,0.0,98,0.00,CLR,,0.00,WeatherDisplay:10.37,2013-07-27 08:57:00,
2013-07-27 05:02:00,79.7,79.1,31.73,West,270,0.0,0.0,98,0.00,CLR,,0.00,WeatherDisplay:10.37,2013-07-27 09:02:00,
2013-07-27 05:07:00,79.7,79.1,31.73,West,270,0.0,0.0,98,0.00,CLR,,0.00,WeatherDisplay:10.37,2013-07-27 09:07:00,
2013-07-27 05:12:00,79.5,78.9,31.73,West,270,0.0,0.0,98,0.00,CLR,,0.00,WeatherDisplay:10.37,2013-07-27 09:12:00,
2013-07-27 05:17:00,79.5,78.9,31.73,West,270,0.0,0.0,98,0.00,CLR,,0.00,WeatherDisplay:10.37,2013-07-27 09:17:00,
2013-07-27 05:22:00,79.5,78.9,32.38,West,270,0.0,0.0,98,0.00,CLR,,0.00,WeatherDisplay:10.37,2013-07-27 09:22:00,
2013-07-27 05:27:00,79.3,78.7,32.38,West,270,0.0,0.0,98,0.00,CLR,,0.00,WeatherDisplay:10.37,2013-07-27 09:27:00,
2013-07-27 05:32:00,79.3,78.7,32.38,West,270,0.0,0.0,98,0.00,CLR,,0.00,WeatherDisplay:10.37,2013-07-27 09:32:00,
2013-07-27 05:37:00,79.3,78.7,30.50,West,270,0.0,0.0,98,0.00,CLR,,0.00,WeatherDisplay:10.37,2013-07-27 09:37:00,
2013-07-27 05:42:00,79.3,78.7,30.50,West,270,0.0,0.0,98,0.00,CLR,,0.00,WeatherDisplay:10.37,2013-07-27 09:42:00,
2013-07-27 05:47:00,79.3,78.7,29.49,West,270,0.0,0.0,98,0.00,CLR,,0.00,WeatherDisplay:10.37,2013-07-27 09:47:00,
2013-07-27 05:52:00,79.3,78.7,29.49,West,270,0.0,0.0,98,0.00,CLR,,0.00,WeatherDisplay:10.37,2013-07-27 09:52:00,
2013-07-27 05:57:00,79.2,78.6,28.96,West,270,0.0,0.0,98,0.00,CLR,,0.00,WeatherDisplay:10.37,2013-07-27 09:57:00,
2013-07-27 06:02:00,79.3,78.7,28.96,West,270,0.0,0.0,98,0.00,CLR,,0.00,WeatherDisplay:10.37,2013-07-27 10:02:00,
2013-07-27 06:07:00,79.3,78.7,28.96,West,270,0.0,0.0,98,0.00,CLR,,0.00,WeatherDisplay:10.37,2013-07-27 10:07:00,
2013-07-27 06:12:00,79.5,78.9,28.48,West,270,0.0,0.0,98,0.00,CLR,,0.00,WeatherDisplay:10.37,2013-07-27 10:12:00,
2013-07-27 06:17:00,79.5,78.9,28.48,West,270,0.0,0.0,98,0.00,CLR,,0.00,WeatherDisplay:10.37,2013-07-27 10:17:00,
2013-07-27 06:22:00,79.3,78.7,28.84,West,270,0.0,0.0,98,0.00,CLR,,0.00,WeatherDisplay:10.37,2013-07-27 10:22:00,
2013-07-27 06:27:00,79.3,78.7,28.84,West,270,0.0,0.0,98,0.00,CLR,,0.00,WeatherDisplay:10.37,2013-07-27 10:27:00,
2013-07-27 06:32:00,79.3,78.7,28.84,West,270,0.0,0.0,98,0.00,CLR,,0.00,WeatherDisplay:10.37,2013-07-27 10:32:00,
2013-07-27 06:37:00,79.3,78.7,30.92,West,270,0.0,0.0,98,0.00,CLR,,0.00,WeatherDisplay:10.37,2013-07-27 10:37:00,
2013-07-27 06:42:00,79.3,78.7,30.92,West,270,0.0,0.0,98,0.00,CLR,,0.00,WeatherDisplay:10.37,2013-07-27 10:42:00,
2013-07-27 06:47:00,79.3,78.7,31.96,West,270,0.0,0.0,98,0.00,CLR,,0.00,WeatherDisplay:10.37,2013-07-27 10:47:00,
2013-07-27 06:52:00,79.3,78.7,31.96,West,270,0.0,0.0,98,0.00,CLR,,0.00,WeatherDisplay:10.37,2013-07-27 10:52:00,
2013-07-27 06:57:00,79.3,78.7,31.96,West,270,0.0,0.0,98,0.00,CLR,,0.00,WeatherDisplay:10.37,2013-07-27 10:57:00,
2013-07-27 07:02:00,79.3,78.7,32.41,West,270,0.0,0.0,98,0.00,CLR,,0.00,WeatherDisplay:10.37,2013-07-27 11:02:00,
2013-07-27 07:07:00,79.7,79.1,32.41,West,270,0.0,0.0,98,0.00,CLR,,0.00,WeatherDisplay:10.37,2013-07-27 11:07:00,
2013-07-27 07:12:00,79.7,79.1,30.92,West,270,0.0,0.0,98,0.00,CLR,,0.00,WeatherDisplay:10.37,2013-07-27 11:12:00,
2013-07-27 07:17:00,79.7,79.1,30.92,West,270,0.0,0.0,98,0.00,CLR,,0.00,WeatherDisplay:10.37,2013-07-27 11:17:00,
2013-07-27 07:22:00,79.7,79.1,30.92,West,270,0.0,0.0,98,0.00,CLR,,0.00,WeatherDisplay:10.37,2013-07-27 11:22:00,
2013-07-27 07:27:00,79.7,79.1,30.92,West,270,0.0,0.0,98,0.00,CLR,,0.00,WeatherDisplay:10.37,2013-07-27 11:27:00,
2013-07-27 07:32:00,79.9,79.3,30.92,West,270,0.0,0.0,98,0.00,CLR,,0.00,WeatherDisplay:10.37,2013-07-27 11:32:00,
2013-07-27 08:01:00,79.9,79.3,30.92,West,270,0.0,0.0,98,0.00,CLR,,0.00,WeatherDisplay:10.37,2013-07-27 12:01:00,
2013-07-27 08:07:00,80.8,80.2,30.92,West,270,0.0,0.0,98,0.00,CLR,,0.00,WeatherDisplay:10.37,2013-07-27 12:07:00,
2013-07-27 08:12:00,81.0,80.4,30.92,West,270,0.0,0.0,98,0.00,CLR,,0.00,WeatherDisplay:10.37,2013-07-27 12:12:00,
2013-07-27 08:17:00,81.1,80.5,30.92,West,270,0.0,0.0,98,0.00,CLR,,0.00,WeatherDisplay:10.37,2013-07-27 12:17:00,
2013-07-27 08:22:00,81.1,80.5,30.92,West,270,0.0,0.0,98,0.00,CLR,,0.00,WeatherDisplay:10.37,2013-07-27 12:22:00,
2013-07-27 08:27:00,81.3,80.7,30.92,West,270,0.0,0.0,98,0.00,CLR,,0.00,WeatherDisplay:10.37,2013-07-27 12:27:00,
2013-07-27 08:32:00,81.5,80.9,30.92,West,270,0.0,0.0,98,0.00,CLR,,0.00,WeatherDisplay:10.37,2013-07-27 12:32:00,
2013-07-27 08:37:00,81.7,81.1,30.92,West,270,0.0,0.0,98,0.00,CLR,,0.00,WeatherDisplay:10.37,2013-07-27 12:37:00,
2013-07-27 08:42:00,81.9,81.3,30.92,West,270,0.0,0.0,98,0.00,CLR,,0.00,WeatherDisplay:10.37,2013-07-27 12:42:00,
2013-07-27 08:47:00,81.9,81.3,30.92,West,270,0.0,0.0,98,0.00,CLR,,0.00,WeatherDisplay:10.37,2013-07-27 12:47:00,
2013-07-27 08:52:00,82.2,81.6,30.92,West,270,0.0,0.0,98,0.00,CLR,,0.00,WeatherDisplay:10.37,2013-07-27 12:52:00,
2013-07-27 08:57:00,82.4,81.8,30.92,West,270,0.0,0.0,98,0.00,CLR,,0.00,WeatherDisplay:10.37,2013-07-27 12:57:00,
2013-07-27 09:02:00,82.6,82.0,30.92,West,270,0.0,0.0,98,0.00,CLR,,0.00,WeatherDisplay:10.37,2013-07-27 13:02:00,
2013-07-27 09:07:00,82.8,82.2,30.92,West,270,0.0,0.0,98,0.00,CLR,,0.00,WeatherDisplay:10.37,2013-07-27 13:07:00,
2013-07-27 09:12:00,82.9,82.3,30.92,West,270,0.0,0.0,98,0.00,CLR,,0.00,WeatherDisplay:10.37,2013-07-27 13:12:00,
2013-07-27 09:17:00,83.1,82.5,30.92,West,270,0.0,0.0,98,0.00,CLR,,0.00,WeatherDisplay:10.37,2013-07-27 13:17:00,
2013-07-27 09:22:00,83.5,82.9,30.92,West,270,0.0,0.0,98,0.00,CLR,,0.00,WeatherDisplay:10.37,2013-07-27 13:22:00,
2013-07-27 09:27:00,83.7,83.1,30.92,West,270,0.0,0.0,98,0.00,CLR,,0.00,WeatherDisplay:10.37,2013-07-27 13:27:00,
2013-07-27 09:32:00,83.8,83.2,30.92,West,270,0.0,0.0,98,0.00,CLR,,0.00,WeatherDisplay:10.37,2013-07-27 13:32:00,
2013-07-27 09:37:00,84.0,83.4,32.28,West,270,0.0,0.0,98,0.00,CLR,,0.00,WeatherDisplay:10.37,2013-07-27 13:37:00,
2013-07-27 09:42:00,84.2,83.6,32.28,West,270,0.0,0.0,98,0.00,CLR,,0.00,WeatherDisplay:10.37,2013-07-27 13:42:00,
2013-07-27 09:47:00,84.6,84.0,32.06,West,270,0.0,0.0,98,0.00,CLR,,0.00,WeatherDisplay:10.37,2013-07-27 13:47:00,
2013-07-27 09:52:00,84.6,84.0,32.06,West,270,0.0,0.0,98,0.00,CLR,,0.00,WeatherDisplay:10.37,2013-07-27 13:52:00,
2013-07-27 09:57:00,84.7,84.1,31.75,West,270,0.0,0.0,98,0.00,CLR,,0.00,WeatherDisplay:10.37,2013-07-27 13:57:00,
2013-07-27 10:02:00,85.3,84.7,31.75,West,270,0.0,0.0,98,0.00,CLR,,0.00,WeatherDisplay:10.37,2013-07-27 14:02:00,
2013-07-27 10:07:00,85.5,84.9,31.75,West,270,0.0,0.0,98,0.00,CLR,,0.00,WeatherDisplay:10.37,2013-07-27 14:07:00,
2013-07-27 10:12:00,85.6,85.0,30.65,West,270,0.0,0.0,98,0.00,CLR,,0.00,WeatherDisplay:10.37,2013-07-27 14:12:00,
2013-07-27 10:17:00,85.8,85.2,30.65,West,270,0.0,0.0,98,0.00,CLR,,0.00,WeatherDisplay:10.37,2013-07-27 14:17:00,
2013-07-27 10:22:00,86.2,85.6,28.90,West,270,0.0,0.0,98,0.00,CLR,,0.00,WeatherDisplay:10.37,2013-07-27 14:22:00,
2013-07-27 10:27:00,86.4,85.8,28.90,West,270,0.0,0.0,98,0.00,CLR,,0.00,WeatherDisplay:10.37,2013-07-27 14:27:00,
2013-07-27 10:32:00,86.4,85.8,28.90,West,270,0.0,0.0,98,0.00,CLR,,0.00,WeatherDisplay:10.37,2013-07-27 14:32:00,
2013-07-27 10:37:00,86.9,86.3,27.83,West,270,0.0,0.0,98,0.00,CLR,,0.00,WeatherDisplay:10.37,2013-07-27 14:37:00,
2013-07-27 10:42:00,86.9,86.3,27.83,West,270,0.0,0.0,98,0.00,CLR,,0.00,WeatherDisplay:10.37,2013-07-27 14:42:00,
2013-07-27 10:47:00,87.3,86.7,27.14,West,270,0.0,0.0,98,0.00,CLR,,0.00,WeatherDisplay:10.37,2013-07-27 14:47:00,
2013-07-27 10:52:00,87.6,87.0,27.14,West,270,0.0,0.0,98,0.00,CLR,,0.00,WeatherDisplay:10.37,2013-07-27 14:52:00,
2013-07-27 10:57:00,87.8,87.2,28.25,West,270,0.0,0.0,98,0.00,CLR,,0.00,WeatherDisplay:10.37,2013-07-27 14:57:00,
2013-07-27 11:02:00,88.2,87.6,28.25,West,270,0.0,0.0,98,0.00,CLR,,0.00,WeatherDisplay:10.37,2013-07-27 15:02:00,
2013-07-27 11:07:00,88.7,88.1,28.25,West,270,0.0,0.0,98,0.00,CLR,,0.00,WeatherDisplay:10.37,2013-07-27 15:07:00,
2013-07-27 11:12:00,89.2,88.6,29.37,West,270,0.0,0.0,98,0.00,CLR,,0.00,WeatherDisplay:10.37,2013-07-27 15:12:00,
2013-07-27 11:17:00,89.8,89.2,29.37,West,270,0.0,0.0,98,0.00,CLR,,0.00,WeatherDisplay:10.37,2013-07-27 15:17:00,
2013-07-27 11:22:00,89.8,89.2,29.99,West,270,0.0,0.0,98,0.00,CLR,,0.00,WeatherDisplay:10.37,2013-07-27 15:22:00,
2013-07-27 11:27:00,90.9,90.3,29.99,West,270,0.0,0.0,98,0.00,CLR,,0.00,WeatherDisplay:10.37,2013-07-27 15:27:00,
2013-07-27 11:32:00,91.2,90.6,29.99,West,270,0.0,0.0,98,0.00,CLR,,0.00,WeatherDisplay:10.37,2013-07-27 15:32:00,
2013-07-27 11:37:00,90.9,90.3,30.27,West,270,0.0,0.0,98,0.00,CLR,,0.00,WeatherDisplay:10.37,2013-07-27 15:37:00,
2013-07-27 11:42:00,92.1,91.5,30.27,West,270,0.0,0.0,98,0.00,CLR,,0.00,WeatherDisplay:10.37,2013-07-27 15:42:00,
2013-07-27 11:48:00,93.4,92.8,30.50,West,270,0.0,0.0,98,0.00,CLR,,0.00,WeatherDisplay:10.37,2013-07-27 15:48:00,
2013-07-27 11:53:00,92.3,91.7,30.50,West,270,0.0,0.0,98,0.00,CLR,,0.00,WeatherDisplay:10.37,2013-07-27 15:53:00,
2013-07-27 11:58:00,93.7,93.0,30.70,West,270,0.0,0.0,98,0.00,CLR,,0.00,WeatherDisplay:10.37,2013-07-27 15:58:00,
2013-07-27 12:03:00,94.8,94.1,30.70,West,270,0.0,0.0,98,0.00,CLR,,0.00,WeatherDisplay:10.37,2013-07-27 16:03:00,
2013-07-27 12:08:00,95.4,94.7,30.70,West,270,0.0,0.0,98,0.00,CLR,,0.00,WeatherDisplay:10.37,2013-07-27 16:08:00,
2013-07-27 12:13:00,95.0,94.3,30.88,West,270,0.0,0.0,98,0.00,CLR,,0.00,WeatherDisplay:10.37,2013-07-27 16:13:00,
2013-07-27 12:18:00,95.9,93.9,30.88,West,270,1.7,1.7,94,0.00,CLR,,0.00,WeatherDisplay:10.37,2013-07-27 16:18:00,
2013-07-27 12:23:00,95.9,89.9,30.95,West,270,0.0,0.0,83,0.00,CLR,,0.00,WeatherDisplay:10.37,2013-07-27 16:23:00,
2013-07-27 12:28:00,94.8,94.1,30.95,West,270,3.5,3.5,98,0.00,CLR,,0.00,WeatherDisplay:10.37,2013-07-27 16:28:00,
2013-07-27 12:33:00,94.1,93.4,31.16,West,270,3.5,3.5,98,0.00,CLR,,0.00,WeatherDisplay:10.37,2013-07-27 16:33:00,
2013-07-27 12:38:00,93.9,93.2,31.16,West,270,1.1,1.1,98,0.00,CLR,,0.00,WeatherDisplay:10.37,2013-07-27 16:38:00,
2013-07-27 12:43:00,94.8,94.1,31.16,West,270,3.5,3.5,98,0.00,CLR,,0.00,WeatherDisplay:10.37,2013-07-27 16:43:00,
2013-07-27 12:48:00,94.3,93.6,31.47,West,270,5.8,5.8,98,0.00,CLR,,0.00,WeatherDisplay:10.37,2013-07-27 16:48:00,
2013-07-27 12:53:00,93.2,92.6,31.47,West,270,3.5,3.5,98,0.00,CLR,,0.00,WeatherDisplay:10.37,2013-07-27 16:53:00,
2013-07-27 12:58:00,91.8,91.2,31.66,West,270,4.6,4.6,98,0.00,CLR,,0.00,WeatherDisplay:10.37,2013-07-27 16:58:00,
2013-07-27 13:03:00,91.4,90.8,31.66,West,270,5.8,5.8,98,0.00,CLR,,0.00,WeatherDisplay:10.37,2013-07-27 17:03:00,
2013-07-27 13:08:00,89.8,89.2,31.66,West,270,5.8,5.8,98,0.17,RA,,0.17,WeatherDisplay:10.37,2013-07-27 17:08:00,
2013-07-27 13:13:00,87.6,87.0,31.89,West,270,5.8,5.8,98,0.88,RA,,0.88,WeatherDisplay:10.37,2013-07-27 17:13:00,
2013-07-27 13:18:00,85.5,84.9,31.89,West,270,4.6,4.6,98,1.02,RA,,1.03,WeatherDisplay:10.37,2013-07-27 17:18:00,
2013-07-27 13:23:00,84.9,84.3,32.12,West,270,1.1,1.1,98,1.08,RA,,1.09,WeatherDisplay:10.37,2013-07-27 17:23:00,
2013-07-27 13:28:00,84.7,84.1,32.12,West,270,1.1,1.1,98,1.11,RA,,1.11,WeatherDisplay:10.37,2013-07-27 17:28:00,
2013-07-27 13:33:00,84.4,83.8,32.12,West,270,1.1,0.0,98,1.18,RA,,1.18,WeatherDisplay:10.37,2013-07-27 17:33:00,
2013-07-27 13:38:00,84.4,83.8,32.35,West,270,0.0,0.0,98,1.23,RA,,1.23,WeatherDisplay:10.37,2013-07-27 17:38:00,
2013-07-27 13:43:00,84.6,84.0,32.35,West,270,0.0,0.0,98,1.25,RA,,1.25,WeatherDisplay:10.37,2013-07-27 17:43:00,
2013-07-27 13:48:00,85.1,84.5,32.33,West,270,0.0,0.0,98,1.26,RA,,1.26,WeatherDisplay:10.37,2013-07-27 17:48:00,
2013-07-27 13:53:00,85.1,84.5,32.33,West,270,0.0,0.0,98,1.26,RA,,1.26,WeatherDisplay:10.37,2013-07-27 17:53:00,
2013-07-27 13:58:00,85.1,84.5,32.28,West,270,0.0,0.0,98,1.26,,,1.26,WeatherDisplay:10.37,2013-07-27 17:58:00,
2013-07-27 14:03:00,85.3,84.7,32.28,West,270,0.0,0.0,98,1.26,CLR,,1.26,WeatherDisplay:10.37,2013-07-27 18:03:00,
2013-07-27 14:08:00,85.1,84.5,32.28,West,270,0.0,0.0,98,1.09,CLR,,1.26,WeatherDisplay:10.37,2013-07-27 18:08:00,
2013-07-27 14:13:00,84.7,84.1,32.27,West,270,0.0,0.0,98,0.38,CLR,,1.26,WeatherDisplay:10.37,2013-07-27 18:13:00,
2013-07-27 14:18:00,84.7,84.1,32.27,West,270,0.0,0.0,98,0.24,CLR,,1.26,WeatherDisplay:10.37,2013-07-27 18:18:00,
2013-07-27 14:23:00,84.4,83.8,32.28,West,270,0.0,0.0,98,0.18,CLR,,1.26,WeatherDisplay:10.37,2013-07-27 18:23:00,
2013-07-27 14:28:00,84.0,83.4,32.28,West,270,0.0,0.0,98,0.15,CLR,,1.26,WeatherDisplay:10.37,2013-07-27 18:28:00,
2013-07-27 14:33:00,84.0,83.4,32.23,West,270,0.0,0.0,98,0.08,CLR,,1.26,WeatherDisplay:10.37,2013-07-27 18:33:00,
2013-07-27 14:38:00,83.8,83.2,32.23,West,270,0.0,0.0,98,0.03,CLR,,1.26,WeatherDisplay:10.37,2013-07-27 18:38:00,
2013-07-27 14:43:00,83.1,82.5,32.23,West,270,0.0,0.0,98,0.01,CLR,,1.26,WeatherDisplay:10.37,2013-07-27 18:43:00,
2013-07-27 14:48:00,83.1,82.5,32.20,West,270,0.0,0.0,98,0.01,RA,,1.27,WeatherDisplay:10.37,2013-07-27 18:48:00,
2013-07-27 14:53:00,82.9,82.3,32.20,West,270,0.0,0.0,98,0.01,RA,,1.28,WeatherDisplay:10.37,2013-07-27 18:53:00,
2013-07-27 14:58:00,82.8,82.2,32.20,West,270,0.0,0.0,98,0.04,RA,,1.30,WeatherDisplay:10.37,2013-07-27 18:58:00,
2013-07-27 15:03:00,82.4,81.8,32.20,West,270,0.0,0.0,98,0.08,RA,,1.34,WeatherDisplay:10.37,2013-07-27 19:03:00,
2013-07-27 15:08:00,82.0,81.4,32.20,West,270,0.0,0.0,98,0.11,RA,,1.37,WeatherDisplay:10.37,2013-07-27 19:08:00,
2013-07-27 15:13:00,81.9,81.3,32.12,West,270,0.0,0.0,98,0.12,RA,,1.38,WeatherDisplay:10.37,2013-07-27 19:13:00,
2013-07-27 15:18:00,81.7,81.1,32.12,West,270,0.0,0.0,98,0.15,RA,,1.42,WeatherDisplay:10.37,2013-07-27 19:18:00,
2013-07-27 15:23:00,81.5,80.9,32.17,West,270,0.0,0.0,98,0.21,RA,,1.47,WeatherDisplay:10.37,2013-07-27 19:23:00,
2013-07-27 15:28:00,81.3,80.7,32.17,West,270,0.0,0.0,98,0.23,RA,,1.50,WeatherDisplay:10.37,2013-07-27 19:28:00,
2013-07-27 15:33:00,81.1,80.5,32.25,West,270,0.0,0.0,98,0.24,RA,,1.50,WeatherDisplay:10.37,2013-07-27 19:33:00,
2013-07-27 15:38:00,81.1,80.5,32.25,West,270,0.0,0.0,98,0.24,RA,,1.50,WeatherDisplay:10.37,2013-07-27 19:38:00,
2013-07-27 15:43:00,81.3,80.7,32.25,West,270,0.0,0.0,98,0.25,RA,,1.51,WeatherDisplay:10.37,2013-07-27 19:43:00,
2013-07-27 15:48:00,81.3,80.7,32.46,West,270,0.0,0.0,98,0.24,RA,,1.51,WeatherDisplay:10.37,2013-07-27 19:48:00,
2013-07-27 15:53:00,81.3,80.7,32.46,West,270,0.0,0.0,98,0.24,CLR,,1.51,WeatherDisplay:10.37,2013-07-27 19:53:00,
2013-07-27 15:58:00,81.3,80.7,31.89,West,270,0.0,0.0,98,0.22,CLR,,1.51,WeatherDisplay:10.37,2013-07-27 19:58:00,
2013-07-27 16:03:00,81.3,80.7,31.89,West,270,0.0,0.0,98,0.17,CLR,,1.51,WeatherDisplay:10.37,2013-07-27 20:03:00,
2013-07-27 16:08:00,81.3,80.7,31.89,West,270,0.0,0.0,98,0.14,CLR,,1.51,WeatherDisplay:10.37,2013-07-27 20:08:00,
2013-07-27 16:13:00,81.3,80.7,31.89,West,270,0.0,0.0,98,0.14,CLR,,1.51,WeatherDisplay:10.37,2013-07-27 20:13:00,
2013-07-27 16:18:00,81.3,80.7,31.89,West,270,0.0,0.0,98,0.13,RA,,1.51,WeatherDisplay:10.37,2013-07-27 20:18:00,
2013-07-27 16:23:00,81.3,80.7,32.44,West,270,0.0,0.0,98,0.07,RA,,1.51,WeatherDisplay:10.37,2013-07-27 20:23:00,
2013-07-27 16:28:00,81.3,80.7,32.44,West,270,0.0,0.0,98,0.03,CLR,,1.51,WeatherDisplay:10.37,2013-07-27 20:28:00,
2013-07-27 16:33:00,81.3,80.7,32.44,West,270,0.0,0.0,98,0.02,RA,,1.52,WeatherDisplay:10.37,2013-07-27 20:33:00,
2013-07-27 16:38:00,81.3,80.7,32.29,West,270,0.0,0.0,98,0.02,RA,,1.52,WeatherDisplay:10.37,2013-07-27 20:38:00,
2013-07-27 16:43:00,81.5,80.9,32.29,West,270,0.0,0.0,98,0.02,CLR,,1.52,WeatherDisplay:10.37,2013-07-27 20:43:00,
2013-07-27 16:48:00,81.5,80.9,32.45,West,270,0.0,0.0,98,0.01,CLR,,1.52,WeatherDisplay:10.37,2013-07-27 20:48:00,
2013-07-27 16:53:00,81.9,81.3,32.45,West,270,0.0,0.0,98,0.01,CLR,,1.52,WeatherDisplay:10.37,2013-07-27 20:53:00,
2013-07-27 16:58:00,82.0,81.4,31.89,West,270,0.0,0.0,98,0.01,CLR,,1.52,WeatherDisplay:10.37,2013-07-27 20:58:00,
2013-07-27 17:03:00,82.0,81.4,31.89,West,270,0.0,0.0,98,0.01,CLR,,1.52,WeatherDisplay:10.37,2013-07-27 21:03:00,
2013-07-27 17:08:00,82.0,81.4,31.89,West,270,0.0,0.0,98,0.01,CLR,,1.52,WeatherDisplay:10.37,2013-07-27 21:08:00,
2013-07-27 17:13:00,82.0,81.4,31.89,West,270,0.0,0.0,98,0.01,CLR,,1.52,WeatherDisplay:10.37,2013-07-27 21:13:00,
2013-07-27 17:18:00,82.0,81.4,31.89,West,270,0.0,0.0,98,0.01,CLR,,1.52,WeatherDisplay:10.37,2013-07-27 21:18:00,
2013-07-27 17:23:00,82.0,81.4,31.89,West,270,0.0,0.0,98,0.01,CLR,,1.52,WeatherDisplay:10.37,2013-07-27 21:23:00,
2013-07-27 17:28:00,82.0,81.4,31.89,West,270,0.0,0.0,98,0.01,CLR,,1.52,WeatherDisplay:10.37,2013-07-27 21:28:00,
2013-07-27 17:33:00,82.0,81.4,31.89,West,270,0.0,0.0,98,0.00,CLR,,1.52,WeatherDisplay:10.37,2013-07-27 21:33:00,
2013-07-27 17:38:00,81.9,81.3,31.89,West,270,0.0,0.0,98,0.00,CLR,,1.52,WeatherDisplay:10.37,2013-07-27 21:38:00,
2013-07-27 17:43:00,81.9,81.3,31.89,West,270,0.0,0.0,98,0.00,CLR,,1.52,WeatherDisplay:10.37,2013-07-27 21:43:00,
2013-07-27 17:48:00,81.9,81.3,31.89,West,270,0.0,0.0,98,0.00,CLR,,1.52,WeatherDisplay:10.37,2013-07-27 21:48:00,
2013-07-27 17:53:00,81.9,81.3,31.89,West,270,0.0,0.0,98,0.00,CLR,,1.52,WeatherDisplay:10.37,2013-07-27 21:53:00,
2013-07-27 17:58:00,82.0,81.4,31.89,West,270,1.1,0.0,98,0.00,CLR,,1.52,WeatherDisplay:10.37,2013-07-27 21:58:00,
2013-07-27 18:03:00,82.0,81.4,31.89,West,270,0.0,0.0,98,0.00,CLR,,1.52,WeatherDisplay:10.37,2013-07-27 22:03:00,
2013-07-27 18:08:00,82.2,81.6,31.89,West,270,0.0,0.0,98,0.00,CLR,,1.52,WeatherDisplay:10.37,2013-07-27 22:08:00,
2013-07-27 18:13:00,82.2,81.6,31.89,West,270,0.0,0.0,98,0.00,CLR,,1.52,WeatherDisplay:10.37,2013-07-27 22:13:00,
2013-07-27 18:18:00,82.4,81.8,31.89,West,270,0.0,0.0,98,0.00,CLR,,1.52,WeatherDisplay:10.37,2013-07-27 22:18:00,
2013-07-27 18:23:00,82.4,81.8,31.89,West,270,0.0,0.0,98,0.00,CLR,,1.52,WeatherDisplay:10.37,2013-07-27 22:23:00,
2013-07-27 18:28:00,82.4,81.8,30.85,West,270,0.0,0.0,98,0.00,CLR,,1.52,WeatherDisplay:10.37,2013-07-27 22:28:00,
2013-07-27 18:33:00,82.6,82.0,30.85,West,270,0.0,0.0,98,0.00,CLR,,1.52,WeatherDisplay:10.37,2013-07-27 22:33:00,
2013-07-27 18:38:00,82.6,82.0,30.85,West,270,0.0,0.0,98,0.00,CLR,,1.52,WeatherDisplay:10.37,2013-07-27 22:38:00,
2013-07-27 18:43:00,82.6,82.0,29.22,West,270,0.0,0.0,98,0.00,CLR,,1.52,WeatherDisplay:10.37,2013-07-27 22:43:00,
2013-07-27 18:48:00,82.6,82.0,29.22,West,270,0.0,0.0,98,0.00,CLR,,1.52,WeatherDisplay:10.37,2013-07-27 22:48:00,
2013-07-27 18:53:00,82.6,82.0,28.03,West,270,0.0,0.0,98,0.00,CLR,,1.52,WeatherDisplay:10.37,2013-07-27 22:53:00,
2013-07-27 18:58:00,82.6,82.0,28.03,West,270,0.0,0.0,98,0.00,CLR,,1.52,WeatherDisplay:10.37,2013-07-27 22:58:00,
2013-07-27 19:03:00,82.6,82.0,28.03,West,270,0.0,0.0,98,0.00,CLR,,1.52,WeatherDisplay:10.37,2013-07-27 23:03:00,
2013-07-27 19:08:00,82.6,82.0,28.03,West,270,0.0,0.0,98,0.00,CLR,,1.52,WeatherDisplay:10.37,2013-07-27 23:08:00,
2013-07-27 19:13:00,82.6,82.0,28.03,West,270,0.0,0.0,98,0.00,CLR,,1.52,WeatherDisplay:10.37,2013-07-27 23:13:00,
2013-07-27 19:18:00,82.6,82.0,28.03,West,270,0.0,0.0,98,0.00,CLR,,1.52,WeatherDisplay:10.37,2013-07-27 23:18:00,
2013-07-27 19:23:00,82.6,82.0,28.03,West,270,0.0,0.0,98,0.00,CLR,,1.52,WeatherDisplay:10.37,2013-07-27 23:23:00,
2013-07-27 19:28:00,82.6,82.0,28.03,West,270,0.0,0.0,98,0.00,CLR,,1.52,WeatherDisplay:10.37,2013-07-27 23:28:00,
2013-07-27 19:33:00,82.6,82.0,28.03,West,270,0.0,0.0,98,0.00,CLR,,1.52,WeatherDisplay:10.37,2013-07-27 23:33:00,
2013-07-27 19:38:00,82.6,82.0,28.03,West,270,0.0,0.0,98,0.00,CLR,,1.52,WeatherDisplay:10.37,2013-07-27 23:38:00,
2013-07-27 19:43:00,82.6,82.0,28.03,West,270,0.0,0.0,98,0.00,CLR,,1.52,WeatherDisplay:10.37,2013-07-27 23:43:00,
2013-07-27 19:48:00,82.6,82.0,28.03,West,270,0.0,0.0,98,0.00,CLR,,1.52,WeatherDisplay:10.37,2013-07-27 23:48:00,
2013-07-27 19:53:00,82.6,82.0,28.03,West,270,0.0,0.0,98,0.00,CLR,,1.52,WeatherDisplay:10.37,2013-07-27 23:53:00,
2013-07-27 19:58:00,82.6,82.0,28.03,West,270,0.0,0.0,98,0.00,CLR,,1.52,WeatherDisplay:10.37,2013-07-27 23:58:00,
2013-07-27 20:03:00,82.6,82.0,28.03,West,270,0.0,0.0,98,0.00,CLR,,1.52,WeatherDisplay:10.37,2013-07-28 00:03:00,
2013-07-27 20:08:00,82.6,82.0,28.03,West,270,0.0,0.0,98,0.00,CLR,,1.52,WeatherDisplay:10.37,2013-07-28 00:08:00,
2013-07-27 20:13:00,82.6,82.0,28.03,West,270,0.0,0.0,98,0.00,CLR,,1.52,WeatherDisplay:10.37,2013-07-28 00:13:00,
2013-07-27 20:18:00,82.6,82.0,28.03,West,270,0.0,0.0,98,0.00,CLR,,1.52,WeatherDisplay:10.37,2013-07-28 00:18:00,
2013-07-27 20:23:00,82.6,82.0,28.03,West,270,0.0,0.0,98,0.00,CLR,,1.52,WeatherDisplay:10.37,2013-07-28 00:23:00,
2013-07-27 20:29:00,82.6,82.0,28.03,West,270,0.0,0.0,98,0.00,CLR,,1.52,WeatherDisplay:10.37,2013-07-28 00:29:00,
2013-07-27 20:34:00,82.6,82.0,28.03,West,270,0.0,0.0,98,0.00,CLR,,1.52,WeatherDisplay:10.37,2013-07-28 00:34:00,
2013-07-27 20:39:00,82.6,82.0,28.03,West,270,0.0,0.0,98,0.00,CLR,,1.52,WeatherDisplay:10.37,2013-07-28 00:39:00,
2013-07-27 20:44:00,82.6,82.0,28.03,West,270,0.0,0.0,98,0.00,CLR,,1.52,WeatherDisplay:10.37,2013-07-28 00:44:00,
2013-07-27 20:49:00,82.6,82.0,28.03,West,270,0.0,0.0,98,0.00,CLR,,1.52,WeatherDisplay:10.37,2013-07-28 00:49:00,
2013-07-27 20:54:00,82.6,82.0,28.03,West,270,0.0,0.0,98,0.00,CLR,,1.52,WeatherDisplay:10.37,2013-07-28 00:54:00,
2013-07-27 20:59:00,82.6,82.0,28.03,West,270,0.0,0.0,98,0.00,CLR,,1.52,WeatherDisplay:10.37,2013-07-28 00:59:00,
2013-07-27 21:04:00,82.6,82.0,28.03,West,270,0.0,0.0,98,0.00,CLR,,1.52,WeatherDisplay:10.37,2013-07-28 01:04:00,
2013-07-27 21:09:00,82.6,82.0,28.03,West,270,0.0,0.0,98,0.00,CLR,,1.52,WeatherDisplay:10.37,2013-07-28 01:09:00,
2013-07-27 21:14:00,82.6,82.0,28.03,West,270,0.0,0.0,98,0.00,CLR,,1.52,WeatherDisplay:10.37,2013-07-28 01:14:00,
2013-07-27 21:19:00,82.6,82.0,28.03,West,270,0.0,0.0,98,0.00,CLR,,1.52,WeatherDisplay:10.37,2013-07-28 01:19:00,
2013-07-27 21:24:00,82.6,82.0,28.03,West,270,0.0,0.0,98,0.00,CLR,,1.52,WeatherDisplay:10.37,2013-07-28 01:24:00,
2013-07-27 21:29:00,82.6,82.0,28.03,West,270,0.0,0.0,98,0.00,CLR,,1.52,WeatherDisplay:10.37,2013-07-28 01:29:00,
2013-07-27 21:34:00,82.6,82.0,28.03,West,270,0.0,0.0,98,0.00,CLR,,1.52,WeatherDisplay:10.37,2013-07-28 01:34:00,
2013-07-27 21:39:00,82.6,82.0,28.03,West,270,0.0,0.0,98,0.00,CLR,,1.52,WeatherDisplay:10.37,2013-07-28 01:39:00,
2013-07-27 21:44:00,82.6,82.0,28.03,West,270,0.0,0.0,98,0.00,CLR,,1.52,WeatherDisplay:10.37,2013-07-28 01:44:00,
2013-07-27 21:49:00,82.6,82.0,28.03,West,270,0.0,0.0,98,0.00,CLR,,1.52,WeatherDisplay:10.37,2013-07-28 01:49:00,
2013-07-27 21:54:00,82.6,82.0,28.03,West,270,0.0,0.0,98,0.00,CLR,,1.52,WeatherDisplay:10.37,2013-07-28 01:54:00,
2013-07-27 21:59:00,82.6,82.0,28.03,West,270,0.0,0.0,98,0.00,CLR,,1.52,WeatherDisplay:10.37,2013-07-28 01:59:00,
2013-07-27 22:04:00,82.6,82.0,28.03,West,270,0.0,0.0,98,0.00,CLR,,1.52,WeatherDisplay:10.37,2013-07-28 02:04:00,
2013-07-27 22:09:00,82.6,82.0,28.03,West,270,0.0,0.0,98,0.00,CLR,,1.52,WeatherDisplay:10.37,2013-07-28 02:09:00,
2013-07-27 22:14:00,82.6,82.0,28.03,West,270,0.0,0.0,98,0.00,CLR,,1.52,WeatherDisplay:10.37,2013-07-28 02:14:00,
2013-07-27 22:19:00,82.6,82.0,28.03,West,270,0.0,0.0,98,0.00,CLR,,1.52,WeatherDisplay:10.37,2013-07-28 02:19:00,
2013-07-27 22:24:00,82.6,82.0,28.03,West,270,0.0,0.0,98,0.00,CLR,,1.52,WeatherDisplay:10.37,2013-07-28 02:24:00,
2013-07-27 22:29:00,82.6,82.0,28.03,West,270,0.0,0.0,98,0.00,CLR,,1.52,WeatherDisplay:10.37,2013-07-28 02:29:00,
2013-07-27 22:34:00,82.6,82.0,28.03,West,270,0.0,0.0,98,0.00,CLR,,1.52,WeatherDisplay:10.37,2013-07-28 02:34:00,
2013-07-27 22:39:00,82.6,82.0,28.03,West,270,0.0,0.0,98,0.00,CLR,,1.52,WeatherDisplay:10.37,2013-07-28 02:39:00,
2013-07-27 22:44:00,82.6,82.0,28.03,West,270,0.0,0.0,98,0.00,CLR,,1.52,WeatherDisplay:10.37,2013-07-28 02:44:00,
2013-07-27 22:49:00,82.6,82.0,28.03,West,270,0.0,0.0,98,0.00,CLR,,1.52,WeatherDisplay:10.37,2013-07-28 02:49:00,
2013-07-27 22:54:00,82.6,82.0,28.03,West,270,0.0,0.0,98,0.00,CLR,,1.52,WeatherDisplay:10.37,2013-07-28 02:54:00,
2013-07-27 22:59:00,82.6,82.0,28.03,West,270,0.0,0.0,98,0.00,CLR,,1.52,WeatherDisplay:10.37,2013-07-28 02:59:00,
2013-07-27 23:04:00,82.6,82.0,28.03,West,270,0.0,0.0,98,0.00,CLR,,1.52,WeatherDisplay:10.37,2013-07-28 03:04:00,
2013-07-27 23:09:00,82.6,82.0,28.03,West,270,0.0,0.0,98,0.00,CLR,,1.52,WeatherDisplay:10.37,2013-07-28 03:09:00,
2013-07-27 23:14:00,82.6,82.0,28.03,West,270,0.0,0.0,98,0.00,CLR,,1.52,WeatherDisplay:10.37,2013-07-28 03:14:00,
2013-07-27 23:19:00,82.6,82.0,28.03,West,270,0.0,0.0,98,0.00,CLR,,1.52,WeatherDisplay:10.37,2013-07-28 03:19:00,
2013-07-27 23:24:00,82.6,82.0,28.03,West,270,0.0,0.0,98,0.00,CLR,,1.52,WeatherDisplay:10.37,2013-07-28 03:24:00,
2013-07-27 23:29:00,82.6,82.0,28.03,West,270,0.0,0.0,98,0.00,CLR,,1.52,WeatherDisplay:10.37,2013-07-28 03:29:00,
2013-07-27 23:34:00,82.6,82.0,28.03,West,270,0.0,0.0,98,0.00,CLR,,1.52,WeatherDisplay:10.37,2013-07-28 03:34:00,
2013-07-27 23:39:00,82.6,82.0,28.03,West,270,0.0,0.0,98,0.00,CLR,,1.52,WeatherDisplay:10.37,2013-07-28 03:39:00,
2013-07-27 23:44:00,82.6,82.0,28.03,West,270,0.0,0.0,98,0.00,CLR,,1.52,WeatherDisplay:10.37,2013-07-28 03:44:00,
2013-07-27 23:49:00,82.6,82.0,28.03,West,270,0.0,0.0,98,0.00,CLR,,1.52,WeatherDisplay:10.37,2013-07-28 03:49:00,
2013-07-27 23:54:00,82.6,82.0,28.03,West,270,0.0,0.0,98,0.00,CLR,,1.52,WeatherDisplay:10.37,2013-07-28 03:54:00,
2013-07-27 23:59:00,82.6,82.0,28.03,West,270,0.0,0.0,98,0.00,CLR,,1.52,WeatherDisplay:10.37,2013-07-28 03:59:00,